Ashville, New York
Current Conditions -  °F | °C
As of 5:15 PM on Monday 20 Oct 2014 (Local Time) from KJHW Reporting Station
Overcast Overcast  
Wind Chill: 52°   Ceiling: 9000
Heat Index: 52°   Visibility: 10mi
Dew Point: 39°   Wind: 8mph
Humidity: 62%   Direction: 190°S
Pressure: 29.84"   Gusts: NA
Location:  42.1°N, 79.38°W
Report Text: KJHW 202115Z AUTO 19007KT 10SM OVC090 11/04 A2984 RMK AO1
Loading
Personal Weather Stations






























Interactive Weather Map
Tropical Storm Tracking
New forecast layout! Learn more

10-Day Weather Forecast

Advertisements
Track Severe Weather on mobile